Aeroporto :
LOGIN :

Iscrizione | Disclaimer

   EN    FR    IT 

 










Sommario :    VFR   VFR Marginale   IFR   IFR Intensivo   IFR Molto Intensivo
Visibilità : 
Base nubi : 
>= 8 km
>= 3000ft
5 / 8 km
1000 / 3000 ft
1500m / 5 km
500 / 1000 ft
800 / 1500m
200 / 500 ft
< 800m
< 200 ft
Simboli :   Temporali  Nebbia  Neve Forte  Precipitazioni Forti  Vento > 20 kt
SIGMETs :   Varie  Temporali  Ghiacco  Turbolenza  Onda orograficha  Ceneri Vulcaniche







- Altitudine del aeroporto : 1411 ft
- Codice IATA : ZHI


LSZG - Grenchen

ULTIMO METAR :
  • 191420Z 04012KT 9999 VCSH VCTS FEW060CB SCT080 19/07 Q1025 NOSIG

METARs OBSOLETI :
  • 191350Z VRB05KT 9999 FEW060TCU SCT080 22/06 Q1025 NOSIG
  • 191320Z VRB03KT 9999 FEW060TCU SCT080 21/05 Q1025 NOSIG
  • 191250Z 24006KT 210V290 9999 FEW060TCU 21/05 Q1026 NOSIG
  • 191220Z 24005KT 180V290 9999 FEW060TCU 20/05 Q1026 NOSIG
  • 191150Z 23004KT 190V250 9999 FEW060TCU 20/06 Q1026 NOSIG

TAF TAF LSZG
Valido dal 19 a 12 ore il 19 a 21 ore UTC


191125Z 1912/1921 VRB03KT CAVOK
TEMPO 1912/1921 FEW060
TEMPO 1912/1918 FEW060TCU
PROB30
TEMPO 1913/1917 SHRA
ATIS : +41 32 396 96 33
Nessun NOTAM noto per questo aeroporto.



MetMap, La meteo Aeronautica in un colpo d'occhio ! - Copyright ORBIFLY Dicembre 2007 - Disclaimer

ORBIFLY MET'MAP TEAM :

Programmazione e sviluppo : Alexandra Zaïnal
Concezione e sviluppo : Baudouin d'Aumeries
Co-Programmazione e sviluppo : Marc-Olivier Méhu
Supporto tecnico e logistico : Manuel Goepfert
Aiuto per la traduzione : Arnaldo La Scala

Contatto : metmap@orbifly.com




FONTI E CREDITI :

   NOAA